sensor_id;sensor_type;location;lat;lon;timestamp;P1;durP1;ratioP1;P2;durP2;ratioP2
23565;SDS011;22140;48.988;8.544;2024-01-30T00:04:12;24.13;;;10.88;;
23565;SDS011;22140;48.988;8.544;2024-01-30T00:09:13;19.20;;;9.47;;
23565;SDS011;22140;48.988;8.544;2024-01-30T00:14:16;21.88;;;10.50;;
23565;SDS011;22140;48.988;8.544;2024-01-30T00:19:17;23.73;;;10.30;;
23565;SDS011;22140;48.988;8.544;2024-01-30T00:24:19;20.88;;;9.52;;
23565;SDS011;22140;48.988;8.544;2024-01-30T00:29:21;23.50;;;10.60;;
23565;SDS011;22140;48.988;8.544;2024-01-30T00:34:24;22.40;;;10.67;;
23565;SDS011;22140;48.988;8.544;2024-01-30T00:39:25;25.38;;;10.90;;
23565;SDS011;22140;48.988;8.544;2024-01-30T00:44:26;20.77;;;9.80;;
23565;SDS011;22140;48.988;8.544;2024-01-30T00:49:28;23.23;;;10.02;;
23565;SDS011;22140;48.988;8.544;2024-01-30T00:54:29;21.50;;;8.65;;
23565;SDS011;22140;48.988;8.544;2024-01-30T00:59:31;21.77;;;9.80;;
23565;SDS011;22140;48.988;8.544;2024-01-30T01:04:32;18.08;;;9.27;;
23565;SDS011;22140;48.988;8.544;2024-01-30T01:09:33;20.33;;;9.70;;
23565;SDS011;22140;48.988;8.544;2024-01-30T01:14:35;19.98;;;9.27;;
23565;SDS011;22140;48.988;8.544;2024-01-30T01:19:37;19.65;;;8.95;;
23565;SDS011;22140;48.988;8.544;2024-01-30T01:24:39;17.40;;;8.23;;
23565;SDS011;22140;48.988;8.544;2024-01-30T01:29:40;19.83;;;8.60;;
23565;SDS011;22140;48.988;8.544;2024-01-30T01:34:42;21.40;;;8.20;;
23565;SDS011;22140;48.988;8.544;2024-01-30T01:39:43;17.67;;;8.40;;
23565;SDS011;22140;48.988;8.544;2024-01-30T01:44:45;16.50;;;8.23;;
23565;SDS011;22140;48.988;8.544;2024-01-30T01:49:46;18.30;;;7.97;;
23565;SDS011;22140;48.988;8.544;2024-01-30T01:54:48;19.92;;;7.47;;
23565;SDS011;22140;48.988;8.544;2024-01-30T01:59:49;17.17;;;7.37;;
23565;SDS011;22140;48.988;8.544;2024-01-30T02:04:51;18.80;;;7.85;;
23565;SDS011;22140;48.988;8.544;2024-01-30T02:09:52;18.80;;;7.43;;
23565;SDS011;22140;48.988;8.544;2024-01-30T02:14:54;16.83;;;6.77;;
23565;SDS011;22140;48.988;8.544;2024-01-30T02:19:56;15.02;;;6.50;;
23565;SDS011;22140;48.988;8.544;2024-01-30T02:24:57;18.97;;;7.77;;
23565;SDS011;22140;48.988;8.544;2024-01-30T02:29:59;15.82;;;6.72;;
23565;SDS011;22140;48.988;8.544;2024-01-30T02:35:00;17.25;;;7.00;;
23565;SDS011;22140;48.988;8.544;2024-01-30T02:40:02;17.53;;;7.63;;
23565;SDS011;22140;48.988;8.544;2024-01-30T02:45:04;18.00;;;7.57;;
23565;SDS011;22140;48.988;8.544;2024-01-30T02:50:05;18.67;;;6.87;;
23565;SDS011;22140;48.988;8.544;2024-01-30T02:55:07;17.88;;;6.80;;
23565;SDS011;22140;48.988;8.544;2024-01-30T03:00:09;16.10;;;6.57;;
23565;SDS011;22140;48.988;8.544;2024-01-30T03:05:10;15.23;;;5.90;;
23565;SDS011;22140;48.988;8.544;2024-01-30T03:10:12;16.52;;;7.60;;
23565;SDS011;22140;48.988;8.544;2024-01-30T03:15:13;15.73;;;6.60;;
23565;SDS011;22140;48.988;8.544;2024-01-30T03:20:15;16.05;;;6.43;;
23565;SDS011;22140;48.988;8.544;2024-01-30T03:25:16;16.83;;;7.03;;
23565;SDS011;22140;48.988;8.544;2024-01-30T03:30:18;13.97;;;6.23;;
23565;SDS011;22140;48.988;8.544;2024-01-30T03:35:19;15.55;;;5.90;;
23565;SDS011;22140;48.988;8.544;2024-01-30T03:40:20;14.70;;;6.00;;
23565;SDS011;22140;48.988;8.544;2024-01-30T03:45:22;12.55;;;5.18;;
23565;SDS011;22140;48.988;8.544;2024-01-30T03:50:23;15.25;;;5.32;;
23565;SDS011;22140;48.988;8.544;2024-01-30T03:55:25;13.03;;;5.97;;
23565;SDS011;22140;48.988;8.544;2024-01-30T04:00:26;14.98;;;5.60;;
23565;SDS011;22140;48.988;8.544;2024-01-30T04:05:27;13.10;;;5.90;;
23565;SDS011;22140;48.988;8.544;2024-01-30T04:10:29;13.27;;;5.55;;
23565;SDS011;22140;48.988;8.544;2024-01-30T04:15:30;15.43;;;5.30;;
23565;SDS011;22140;48.988;8.544;2024-01-30T04:20:32;11.77;;;4.67;;
23565;SDS011;22140;48.988;8.544;2024-01-30T04:25:33;12.43;;;4.97;;
23565;SDS011;22140;48.988;8.544;2024-01-30T04:30:34;13.77;;;5.50;;
23565;SDS011;22140;48.988;8.544;2024-01-30T04:35:36;10.60;;;4.38;;
23565;SDS011;22140;48.988;8.544;2024-01-30T04:40:37;10.77;;;5.03;;
23565;SDS011;22140;48.988;8.544;2024-01-30T04:45:38;11.27;;;4.73;;
23565;SDS011;22140;48.988;8.544;2024-01-30T04:50:40;13.52;;;5.53;;
23565;SDS011;22140;48.988;8.544;2024-01-30T04:55:41;11.17;;;4.83;;
23565;SDS011;22140;48.988;8.544;2024-01-30T05:00:43;10.60;;;4.40;;
23565;SDS011;22140;48.988;8.544;2024-01-30T05:05:44;12.55;;;5.00;;
23565;SDS011;22140;48.988;8.544;2024-01-30T05:10:46;14.90;;;5.27;;
23565;SDS011;22140;48.988;8.544;2024-01-30T05:15:47;14.73;;;5.47;;
23565;SDS011;22140;48.988;8.544;2024-01-30T05:20:52;11.07;;;4.97;;
23565;SDS011;22140;48.988;8.544;2024-01-30T05:25:53;13.05;;;5.03;;
23565;SDS011;22140;48.988;8.544;2024-01-30T05:30:54;14.45;;;4.97;;
23565;SDS011;22140;48.988;8.544;2024-01-30T05:35:56;15.90;;;5.20;;
23565;SDS011;22140;48.988;8.544;2024-01-30T05:40:57;14.23;;;5.80;;
23565;SDS011;22140;48.988;8.544;2024-01-30T05:46:01;11.80;;;5.10;;
23565;SDS011;22140;48.988;8.544;2024-01-30T05:51:03;13.93;;;4.90;;
23565;SDS011;22140;48.988;8.544;2024-01-30T05:56:06;12.32;;;4.70;;
23565;SDS011;22140;48.988;8.544;2024-01-30T06:01:07;13.33;;;5.50;;
23565;SDS011;22140;48.988;8.544;2024-01-30T06:06:10;11.60;;;4.53;;
23565;SDS011;22140;48.988;8.544;2024-01-30T06:11:11;12.43;;;4.80;;
23565;SDS011;22140;48.988;8.544;2024-01-30T06:16:13;13.45;;;5.40;;
23565;SDS011;22140;48.988;8.544;2024-01-30T06:21:14;14.40;;;5.30;;
23565;SDS011;22140;48.988;8.544;2024-01-30T06:26:16;12.63;;;4.97;;
23565;SDS011;22140;48.988;8.544;2024-01-30T06:31:17;16.50;;;5.40;;
23565;SDS011;22140;48.988;8.544;2024-01-30T06:36:19;14.30;;;5.60;;
23565;SDS011;22140;48.988;8.544;2024-01-30T06:41:20;15.63;;;6.07;;
23565;SDS011;22140;48.988;8.544;2024-01-30T06:46:22;17.10;;;6.00;;
23565;SDS011;22140;48.988;8.544;2024-01-30T06:51:23;12.90;;;5.57;;
23565;SDS011;22140;48.988;8.544;2024-01-30T06:56:25;12.82;;;5.55;;
23565;SDS011;22140;48.988;8.544;2024-01-30T07:01:29;13.73;;;5.33;;
23565;SDS011;22140;48.988;8.544;2024-01-30T07:06:31;14.63;;;5.85;;
23565;SDS011;22140;48.988;8.544;2024-01-30T07:11:32;13.70;;;5.78;;
23565;SDS011;22140;48.988;8.544;2024-01-30T07:16:34;16.67;;;6.53;;
23565;SDS011;22140;48.988;8.544;2024-01-30T07:21:35;18.20;;;6.68;;
23565;SDS011;22140;48.988;8.544;2024-01-30T07:26:36;13.77;;;6.07;;
23565;SDS011;22140;48.988;8.544;2024-01-30T07:31:38;18.52;;;6.68;;
23565;SDS011;22140;48.988;8.544;2024-01-30T07:36:39;15.13;;;7.10;;
23565;SDS011;22140;48.988;8.544;2024-01-30T07:41:41;16.93;;;7.43;;
23565;SDS011;22140;48.988;8.544;2024-01-30T07:46:42;18.25;;;7.63;;
23565;SDS011;22140;48.988;8.544;2024-01-30T07:51:43;16.63;;;6.87;;
23565;SDS011;22140;48.988;8.544;2024-01-30T07:56:46;15.52;;;6.50;;
23565;SDS011;22140;48.988;8.544;2024-01-30T08:01:47;15.60;;;6.78;;
23565;SDS011;22140;48.988;8.544;2024-01-30T08:06:49;15.60;;;6.50;;
23565;SDS011;22140;48.988;8.544;2024-01-30T08:11:50;17.67;;;7.03;;
23565;SDS011;22140;48.988;8.544;2024-01-30T08:16:52;13.37;;;6.20;;
23565;SDS011;22140;48.988;8.544;2024-01-30T08:21:53;14.32;;;5.53;;
23565;SDS011;22140;48.988;8.544;2024-01-30T08:26:55;15.13;;;6.32;;
23565;SDS011;22140;48.988;8.544;2024-01-30T08:31:56;14.97;;;6.40;;
23565;SDS011;22140;48.988;8.544;2024-01-30T08:36:57;12.90;;;5.97;;
23565;SDS011;22140;48.988;8.544;2024-01-30T08:41:59;13.97;;;6.27;;
23565;SDS011;22140;48.988;8.544;2024-01-30T08:47:00;13.30;;;5.82;;
23565;SDS011;22140;48.988;8.544;2024-01-30T08:52:02;15.45;;;6.00;;
23565;SDS011;22140;48.988;8.544;2024-01-30T08:57:04;16.10;;;6.37;;
23565;SDS011;22140;48.988;8.544;2024-01-30T09:02:05;14.32;;;6.43;;
23565;SDS011;22140;48.988;8.544;2024-01-30T09:07:13;16.87;;;8.00;;
23565;SDS011;22140;48.988;8.544;2024-01-30T09:12:15;24.60;;;7.90;;
23565;SDS011;22140;48.988;8.544;2024-01-30T09:17:16;16.92;;;7.43;;
23565;SDS011;22140;48.988;8.544;2024-01-30T09:22:18;21.83;;;7.17;;
23565;SDS011;22140;48.988;8.544;2024-01-30T09:27:19;15.38;;;7.53;;
23565;SDS011;22140;48.988;8.544;2024-01-30T09:32:21;21.47;;;8.23;;
23565;SDS011;22140;48.988;8.544;2024-01-30T09:37:22;17.92;;;8.32;;
23565;SDS011;22140;48.988;8.544;2024-01-30T09:42:34;25.65;;;9.27;;
23565;SDS011;22140;48.988;8.544;2024-01-30T09:47:41;19.27;;;7.93;;
23565;SDS011;22140;48.988;8.544;2024-01-30T09:52:44;18.45;;;8.23;;
23565;SDS011;22140;48.988;8.544;2024-01-30T09:57:45;45.30;;;19.33;;
23565;SDS011;22140;48.988;8.544;2024-01-30T10:02:47;33.88;;;15.30;;
23565;SDS011;22140;48.988;8.544;2024-01-30T10:07:52;35.28;;;15.52;;
23565;SDS011;22140;48.988;8.544;2024-01-30T10:12:55;22.10;;;11.13;;
23565;SDS011;22140;48.988;8.544;2024-01-30T10:17:57;16.27;;;7.93;;
23565;SDS011;22140;48.988;8.544;2024-01-30T10:22:59;20.97;;;8.37;;
23565;SDS011;22140;48.988;8.544;2024-01-30T10:28:00;16.90;;;7.88;;
23565;SDS011;22140;48.988;8.544;2024-01-30T10:33:01;15.73;;;6.60;;
23565;SDS011;22140;48.988;8.544;2024-01-30T10:38:03;15.37;;;6.70;;
23565;SDS011;22140;48.988;8.544;2024-01-30T10:43:07;53.70;;;20.25;;
23565;SDS011;22140;48.988;8.544;2024-01-30T10:48:12;28.63;;;11.50;;
23565;SDS011;22140;48.988;8.544;2024-01-30T10:53:14;15.88;;;6.78;;
23565;SDS011;22140;48.988;8.544;2024-01-30T10:58:17;22.35;;;8.40;;
23565;SDS011;22140;48.988;8.544;2024-01-30T11:03:19;19.73;;;8.27;;
23565;SDS011;22140;48.988;8.544;2024-01-30T11:08:23;16.52;;;7.45;;
23565;SDS011;22140;48.988;8.544;2024-01-30T11:13:28;19.90;;;7.93;;
23565;SDS011;22140;48.988;8.544;2024-01-30T11:18:31;23.33;;;7.15;;
23565;SDS011;22140;48.988;8.544;2024-01-30T11:23:35;18.95;;;8.07;;
23565;SDS011;22140;48.988;8.544;2024-01-30T11:28:37;24.50;;;7.23;;
23565;SDS011;22140;48.988;8.544;2024-01-30T11:33:39;17.17;;;7.43;;
23565;SDS011;22140;48.988;8.544;2024-01-30T11:38:41;19.67;;;8.27;;
23565;SDS011;22140;48.988;8.544;2024-01-30T11:43:52;24.70;;;8.32;;
23565;SDS011;22140;48.988;8.544;2024-01-30T11:48:54;18.70;;;6.93;;
23565;SDS011;22140;48.988;8.544;2024-01-30T11:53:55;61.77;;;8.20;;
23565;SDS011;22140;48.988;8.544;2024-01-30T11:58:57;13.48;;;5.57;;
23565;SDS011;22140;48.988;8.544;2024-01-30T12:03:58;19.77;;;5.93;;
23565;SDS011;22140;48.988;8.544;2024-01-30T12:09:01;53.50;;;9.00;;
23565;SDS011;22140;48.988;8.544;2024-01-30T12:14:05;47.95;;;8.82;;
23565;SDS011;22140;48.988;8.544;2024-01-30T12:19:06;24.00;;;6.57;;
23565;SDS011;22140;48.988;8.544;2024-01-30T12:24:08;19.35;;;6.13;;
23565;SDS011;22140;48.988;8.544;2024-01-30T12:29:09;22.20;;;6.53;;
23565;SDS011;22140;48.988;8.544;2024-01-30T12:34:13;19.27;;;5.82;;
23565;SDS011;22140;48.988;8.544;2024-01-30T12:39:15;38.55;;;13.68;;
23565;SDS011;22140;48.988;8.544;2024-01-30T12:44:16;46.60;;;11.53;;
23565;SDS011;22140;48.988;8.544;2024-01-30T12:49:18;25.23;;;7.28;;
23565;SDS011;22140;48.988;8.544;2024-01-30T12:54:20;15.80;;;6.00;;
23565;SDS011;22140;48.988;8.544;2024-01-30T12:59:21;28.98;;;6.72;;
23565;SDS011;22140;48.988;8.544;2024-01-30T13:04:25;12.68;;;5.47;;
23565;SDS011;22140;48.988;8.544;2024-01-30T13:09:29;17.13;;;5.13;;
23565;SDS011;22140;48.988;8.544;2024-01-30T13:14:30;15.00;;;5.38;;
23565;SDS011;22140;48.988;8.544;2024-01-30T13:19:31;16.80;;;5.27;;
23565;SDS011;22140;48.988;8.544;2024-01-30T13:24:33;25.75;;;5.85;;
23565;SDS011;22140;48.988;8.544;2024-01-30T13:29:34;21.83;;;5.60;;
23565;SDS011;22140;48.988;8.544;2024-01-30T13:34:35;32.07;;;6.30;;
23565;SDS011;22140;48.988;8.544;2024-01-30T13:39:37;25.25;;;6.30;;
23565;SDS011;22140;48.988;8.544;2024-01-30T13:44:40;13.93;;;6.37;;
23565;SDS011;22140;48.988;8.544;2024-01-30T13:49:42;17.25;;;5.30;;
23565;SDS011;22140;48.988;8.544;2024-01-30T13:54:43;13.90;;;5.60;;
23565;SDS011;22140;48.988;8.544;2024-01-30T13:59:44;27.90;;;7.33;;
23565;SDS011;22140;48.988;8.544;2024-01-30T14:04:46;20.13;;;7.00;;
23565;SDS011;22140;48.988;8.544;2024-01-30T14:09:47;80.07;;;9.90;;
23565;SDS011;22140;48.988;8.544;2024-01-30T14:14:49;23.98;;;7.53;;
23565;SDS011;22140;48.988;8.544;2024-01-30T14:19:50;19.13;;;6.97;;
23565;SDS011;22140;48.988;8.544;2024-01-30T14:24:52;38.67;;;8.37;;
23565;SDS011;22140;48.988;8.544;2024-01-30T14:29:53;22.63;;;7.30;;
23565;SDS011;22140;48.988;8.544;2024-01-30T14:34:54;22.70;;;6.70;;
23565;SDS011;22140;48.988;8.544;2024-01-30T14:39:56;21.40;;;6.70;;
23565;SDS011;22140;48.988;8.544;2024-01-30T14:44:57;20.75;;;6.47;;
23565;SDS011;22140;48.988;8.544;2024-01-30T14:49:59;32.80;;;7.37;;
23565;SDS011;22140;48.988;8.544;2024-01-30T14:55:01;25.27;;;6.90;;
23565;SDS011;22140;48.988;8.544;2024-01-30T15:00:02;18.77;;;7.00;;
23565;SDS011;22140;48.988;8.544;2024-01-30T15:05:04;18.02;;;6.32;;
23565;SDS011;22140;48.988;8.544;2024-01-30T15:10:06;25.58;;;6.80;;
23565;SDS011;22140;48.988;8.544;2024-01-30T15:15:08;22.00;;;6.43;;
23565;SDS011;22140;48.988;8.544;2024-01-30T15:20:11;37.75;;;12.18;;
23565;SDS011;22140;48.988;8.544;2024-01-30T15:25:12;30.73;;;11.10;;
23565;SDS011;22140;48.988;8.544;2024-01-30T15:30:14;39.13;;;16.20;;
23565;SDS011;22140;48.988;8.544;2024-01-30T15:35:15;29.40;;;10.32;;
23565;SDS011;22140;48.988;8.544;2024-01-30T15:40:17;46.70;;;10.23;;
23565;SDS011;22140;48.988;8.544;2024-01-30T15:45:19;47.95;;;11.68;;
23565;SDS011;22140;48.988;8.544;2024-01-30T15:50:21;24.13;;;8.30;;
23565;SDS011;22140;48.988;8.544;2024-01-30T15:55:22;19.98;;;8.15;;
23565;SDS011;22140;48.988;8.544;2024-01-30T16:00:24;43.05;;;10.65;;
23565;SDS011;22140;48.988;8.544;2024-01-30T16:05:25;29.57;;;9.83;;
23565;SDS011;22140;48.988;8.544;2024-01-30T16:10:26;34.03;;;9.82;;
23565;SDS011;22140;48.988;8.544;2024-01-30T16:15:28;35.33;;;11.87;;
23565;SDS011;22140;48.988;8.544;2024-01-30T16:20:29;23.75;;;9.32;;
23565;SDS011;22140;48.988;8.544;2024-01-30T16:25:31;29.88;;;10.15;;
23565;SDS011;22140;48.988;8.544;2024-01-30T16:30:32;25.93;;;9.87;;
23565;SDS011;22140;48.988;8.544;2024-01-30T16:35:34;25.52;;;9.80;;
23565;SDS011;22140;48.988;8.544;2024-01-30T16:40:47;26.63;;;10.53;;
23565;SDS011;22140;48.988;8.544;2024-01-30T16:45:48;23.75;;;10.60;;
23565;SDS011;22140;48.988;8.544;2024-01-30T16:50:50;26.80;;;10.85;;
23565;SDS011;22140;48.988;8.544;2024-01-30T16:55:51;29.93;;;11.50;;
23565;SDS011;22140;48.988;8.544;2024-01-30T17:00:53;26.27;;;12.05;;
23565;SDS011;22140;48.988;8.544;2024-01-30T17:05:55;25.67;;;11.20;;
23565;SDS011;22140;48.988;8.544;2024-01-30T17:10:59;29.38;;;12.52;;
23565;SDS011;22140;48.988;8.544;2024-01-30T17:16:01;35.03;;;13.55;;
23565;SDS011;22140;48.988;8.544;2024-01-30T17:21:02;22.53;;;10.77;;
23565;SDS011;22140;48.988;8.544;2024-01-30T17:26:04;22.60;;;10.60;;
23565;SDS011;22140;48.988;8.544;2024-01-30T17:31:05;26.60;;;10.83;;
23565;SDS011;22140;48.988;8.544;2024-01-30T17:36:07;20.42;;;8.90;;
23565;SDS011;22140;48.988;8.544;2024-01-30T17:41:08;26.08;;;9.02;;
23565;SDS011;22140;48.988;8.544;2024-01-30T17:46:13;23.63;;;9.47;;
23565;SDS011;22140;48.988;8.544;2024-01-30T17:51:14;26.42;;;11.05;;
23565;SDS011;22140;48.988;8.544;2024-01-30T17:56:16;37.43;;;17.13;;
23565;SDS011;22140;48.988;8.544;2024-01-30T18:01:18;52.88;;;23.17;;
23565;SDS011;22140;48.988;8.544;2024-01-30T18:06:20;39.35;;;19.27;;
23565;SDS011;22140;48.988;8.544;2024-01-30T18:11:21;23.57;;;10.73;;
23565;SDS011;22140;48.988;8.544;2024-01-30T18:16:23;23.17;;;10.93;;
23565;SDS011;22140;48.988;8.544;2024-01-30T18:21:26;28.03;;;11.93;;
23565;SDS011;22140;48.988;8.544;2024-01-30T18:26:27;20.70;;;11.07;;
23565;SDS011;22140;48.988;8.544;2024-01-30T18:31:29;20.50;;;10.65;;
23565;SDS011;22140;48.988;8.544;2024-01-30T18:36:30;23.90;;;10.70;;
23565;SDS011;22140;48.988;8.544;2024-01-30T18:41:31;26.48;;;12.70;;
23565;SDS011;22140;48.988;8.544;2024-01-30T18:46:33;23.93;;;12.00;;
23565;SDS011;22140;48.988;8.544;2024-01-30T18:51:34;31.23;;;13.80;;
23565;SDS011;22140;48.988;8.544;2024-01-30T18:56:39;33.03;;;15.30;;
23565;SDS011;22140;48.988;8.544;2024-01-30T19:01:40;28.13;;;14.07;;
23565;SDS011;22140;48.988;8.544;2024-01-30T19:06:42;36.47;;;15.77;;
23565;SDS011;22140;48.988;8.544;2024-01-30T19:11:44;31.57;;;15.43;;
23565;SDS011;22140;48.988;8.544;2024-01-30T19:16:45;39.05;;;20.83;;
23565;SDS011;22140;48.988;8.544;2024-01-30T19:21:47;38.75;;;17.50;;
23565;SDS011;22140;48.988;8.544;2024-01-30T19:26:49;34.33;;;15.40;;
23565;SDS011;22140;48.988;8.544;2024-01-30T19:31:53;32.38;;;15.65;;
23565;SDS011;22140;48.988;8.544;2024-01-30T19:36:54;30.87;;;15.17;;
23565;SDS011;22140;48.988;8.544;2024-01-30T19:41:55;29.05;;;13.75;;
23565;SDS011;22140;48.988;8.544;2024-01-30T19:46:57;31.67;;;14.85;;
23565;SDS011;22140;48.988;8.544;2024-01-30T19:52:05;30.83;;;14.77;;
23565;SDS011;22140;48.988;8.544;2024-01-30T19:57:08;30.10;;;14.65;;
23565;SDS011;22140;48.988;8.544;2024-01-30T20:02:11;30.13;;;14.90;;
23565;SDS011;22140;48.988;8.544;2024-01-30T20:07:16;34.22;;;15.05;;
23565;SDS011;22140;48.988;8.544;2024-01-30T20:12:19;30.30;;;16.05;;
23565;SDS011;22140;48.988;8.544;2024-01-30T20:17:20;32.50;;;16.57;;
23565;SDS011;22140;48.988;8.544;2024-01-30T20:22:22;26.25;;;15.32;;
23565;SDS011;22140;48.988;8.544;2024-01-30T20:27:23;24.73;;;13.53;;
23565;SDS011;22140;48.988;8.544;2024-01-30T20:32:25;24.88;;;14.13;;
23565;SDS011;22140;48.988;8.544;2024-01-30T20:37:26;26.55;;;14.13;;
23565;SDS011;22140;48.988;8.544;2024-01-30T20:42:28;34.27;;;16.07;;
23565;SDS011;22140;48.988;8.544;2024-01-30T20:47:30;40.58;;;19.27;;
23565;SDS011;22140;48.988;8.544;2024-01-30T20:52:31;27.87;;;15.07;;
23565;SDS011;22140;48.988;8.544;2024-01-30T20:57:33;29.05;;;14.32;;
23565;SDS011;22140;48.988;8.544;2024-01-30T21:02:36;24.98;;;13.27;;
23565;SDS011;22140;48.988;8.544;2024-01-30T21:07:38;30.07;;;15.63;;
23565;SDS011;22140;48.988;8.544;2024-01-30T21:12:40;26.83;;;14.45;;
23565;SDS011;22140;48.988;8.544;2024-01-30T21:17:41;28.13;;;13.23;;
23565;SDS011;22140;48.988;8.544;2024-01-30T21:22:43;25.42;;;13.30;;
23565;SDS011;22140;48.988;8.544;2024-01-30T21:27:44;25.38;;;12.35;;
23565;SDS011;22140;48.988;8.544;2024-01-30T21:32:45;25.47;;;12.67;;
23565;SDS011;22140;48.988;8.544;2024-01-30T21:37:47;35.97;;;18.45;;
23565;SDS011;22140;48.988;8.544;2024-01-30T21:42:48;24.67;;;12.83;;
23565;SDS011;22140;48.988;8.544;2024-01-30T21:47:52;25.90;;;13.10;;
23565;SDS011;22140;48.988;8.544;2024-01-30T21:52:53;26.55;;;13.68;;
23565;SDS011;22140;48.988;8.544;2024-01-30T21:57:55;19.37;;;10.20;;
23565;SDS011;22140;48.988;8.544;2024-01-30T22:02:56;31.02;;;14.10;;
23565;SDS011;22140;48.988;8.544;2024-01-30T22:07:58;33.20;;;17.80;;
23565;SDS011;22140;48.988;8.544;2024-01-30T22:12:59;37.72;;;17.33;;
23565;SDS011;22140;48.988;8.544;2024-01-30T22:18:00;39.60;;;18.92;;
23565;SDS011;22140;48.988;8.544;2024-01-30T22:23:02;30.13;;;15.20;;
23565;SDS011;22140;48.988;8.544;2024-01-30T22:28:03;36.50;;;17.73;;
23565;SDS011;22140;48.988;8.544;2024-01-30T22:33:05;28.73;;;14.23;;
23565;SDS011;22140;48.988;8.544;2024-01-30T22:38:08;30.85;;;15.45;;
23565;SDS011;22140;48.988;8.544;2024-01-30T22:43:10;30.20;;;14.88;;
23565;SDS011;22140;48.988;8.544;2024-01-30T22:48:12;31.70;;;14.77;;
23565;SDS011;22140;48.988;8.544;2024-01-30T22:53:13;28.33;;;13.98;;
23565;SDS011;22140;48.988;8.544;2024-01-30T22:58:14;31.10;;;13.90;;
23565;SDS011;22140;48.988;8.544;2024-01-30T23:03:16;35.33;;;15.57;;
23565;SDS011;22140;48.988;8.544;2024-01-30T23:08:18;30.00;;;14.80;;
23565;SDS011;22140;48.988;8.544;2024-01-30T23:13:19;32.33;;;14.73;;
23565;SDS011;22140;48.988;8.544;2024-01-30T23:18:21;31.48;;;15.32;;
23565;SDS011;22140;48.988;8.544;2024-01-30T23:23:22;33.70;;;15.97;;
23565;SDS011;22140;48.988;8.544;2024-01-30T23:28:24;32.17;;;14.57;;
23565;SDS011;22140;48.988;8.544;2024-01-30T23:33:25;30.70;;;14.40;;
23565;SDS011;22140;48.988;8.544;2024-01-30T23:38:26;29.70;;;14.47;;
23565;SDS011;22140;48.988;8.544;2024-01-30T23:43:28;26.70;;;13.23;;
23565;SDS011;22140;48.988;8.544;2024-01-30T23:48:31;24.43;;;12.53;;
23565;SDS011;22140;48.988;8.544;2024-01-30T23:53:32;28.27;;;12.75;;
23565;SDS011;22140;48.988;8.544;2024-01-30T23:58:35;22.65;;;11.98;;
